sensor_id;sensor_type;location;lat;lon;timestamp;pressure;altitude;pressure_sealevel;temperature;humidity
48553;BME280;34335;51.566;6.994;2023-04-25T00:02:09;100361.72;;;5.02;100.00
48553;BME280;34335;51.566;6.994;2023-04-25T00:04:34;100361.75;;;5.03;100.00
48553;BME280;34335;51.566;6.994;2023-04-25T00:07:00;100358.22;;;4.98;100.00
48553;BME280;34335;51.566;6.994;2023-04-25T00:09:27;100360.91;;;5.06;100.00
48553;BME280;34335;51.566;6.994;2023-04-25T00:11:53;100366.03;;;5.03;100.00
48553;BME280;34335;51.566;6.994;2023-04-25T00:14:18;100362.63;;;5.04;100.00
48553;BME280;34335;51.566;6.994;2023-04-25T00:16:43;100365.28;;;5.10;100.00
48553;BME280;34335;51.566;6.994;2023-04-25T00:19:09;100368.72;;;5.10;100.00
48553;BME280;34335;51.566;6.994;2023-04-25T00:21:34;100367.78;;;5.04;100.00
48553;BME280;34335;51.566;6.994;2023-04-25T00:24:00;100373.06;;;5.13;100.00
48553;BME280;34335;51.566;6.994;2023-04-25T00:26:26;100375.66;;;5.13;100.00
48553;BME280;34335;51.566;6.994;2023-04-25T00:28:52;100369.69;;;5.17;100.00
48553;BME280;34335;51.566;6.994;2023-04-25T00:31:17;100373.94;;;5.13;100.00
48553;BME280;34335;51.566;6.994;2023-04-25T00:33:42;100369.66;;;5.14;100.00
48553;BME280;34335;51.566;6.994;2023-04-25T00:36:08;100369.66;;;5.14;100.00
48553;BME280;34335;51.566;6.994;2023-04-25T00:38:33;100366.31;;;5.21;100.00
48553;BME280;34335;51.566;6.994;2023-04-25T00:40:58;100373.16;;;5.18;100.00
48553;BME280;34335;51.566;6.994;2023-04-25T00:43:27;100375.66;;;5.14;100.00
48553;BME280;34335;51.566;6.994;2023-04-25T00:45:53;100372.25;;;5.15;100.00
48553;BME280;34335;51.566;6.994;2023-04-25T00:48:22;100370.50;;;5.14;100.00
48553;BME280;34335;51.566;6.994;2023-04-25T00:50:53;100368.78;;;5.13;100.00
48553;BME280;34335;51.566;6.994;2023-04-25T00:53:22;100368.75;;;5.12;100.00
48553;BME280;34335;51.566;6.994;2023-04-25T00:55:49;100365.31;;;5.11;100.00
48553;BME280;34335;51.566;6.994;2023-04-25T00:58:16;100380.75;;;5.11;100.00
48553;BME280;34335;51.566;6.994;2023-04-25T01:00:42;100382.47;;;5.09;100.00
48553;BME280;34335;51.566;6.994;2023-04-25T01:03:07;100381.69;;;5.15;100.00
48553;BME280;34335;51.566;6.994;2023-04-25T01:05:33;100378.31;;;5.19;100.00
48553;BME280;34335;51.566;6.994;2023-04-25T01:07:58;100395.44;;;5.14;100.00
48553;BME280;34335;51.566;6.994;2023-04-25T01:10:24;100391.06;;;5.10;100.00
48553;BME280;34335;51.566;6.994;2023-04-25T01:12:49;100387.66;;;5.12;100.00
48553;BME280;34335;51.566;6.994;2023-04-25T01:15:15;100378.94;;;5.06;100.00
48553;BME280;34335;51.566;6.994;2023-04-25T01:17:40;100376.38;;;5.04;100.00
48553;BME280;34335;51.566;6.994;2023-04-25T01:20:07;100383.25;;;5.04;100.00
48553;BME280;34335;51.566;6.994;2023-04-25T01:22:34;100368.63;;;5.03;100.00
48553;BME280;34335;51.566;6.994;2023-04-25T01:25:00;100387.56;;;5.05;100.00
48553;BME280;34335;51.566;6.994;2023-04-25T01:27:26;100382.41;;;5.05;100.00
48553;BME280;34335;51.566;6.994;2023-04-25T01:29:52;100389.16;;;4.99;100.00
48553;BME280;34335;51.566;6.994;2023-04-25T01:32:18;100383.94;;;4.93;100.00
48553;BME280;34335;51.566;6.994;2023-04-25T01:34:45;100394.25;;;4.96;100.00
48553;BME280;34335;51.566;6.994;2023-04-25T01:37:10;100396.81;;;4.95;100.00
48553;BME280;34335;51.566;6.994;2023-04-25T01:39:36;100400.31;;;4.98;100.00
48553;BME280;34335;51.566;6.994;2023-04-25T01:42:01;100394.25;;;4.95;100.00
48553;BME280;34335;51.566;6.994;2023-04-25T01:44:27;100397.78;;;5.00;100.00
48553;BME280;34335;51.566;6.994;2023-04-25T01:46:53;100404.50;;;4.92;100.00
48553;BME280;34335;51.566;6.994;2023-04-25T01:49:19;100400.31;;;4.98;100.00
48553;BME280;34335;51.566;6.994;2023-04-25T01:51:44;100402.13;;;5.03;100.00
48553;BME280;34335;51.566;6.994;2023-04-25T01:54:10;100400.31;;;4.98;100.00
48553;BME280;34335;51.566;6.994;2023-04-25T01:56:37;100409.81;;;5.01;100.00
48553;BME280;34335;51.566;6.994;2023-04-25T01:59:04;100414.09;;;5.01;100.00
48553;BME280;34335;51.566;6.994;2023-04-25T02:01:29;100408.03;;;4.97;100.00
48553;BME280;34335;51.566;6.994;2023-04-25T02:03:55;100414.09;;;5.01;100.00
48553;BME280;34335;51.566;6.994;2023-04-25T02:06:20;100417.63;;;5.06;100.00
48553;BME280;34335;51.566;6.994;2023-04-25T02:08:45;100421.09;;;5.08;100.00
48553;BME280;34335;51.566;6.994;2023-04-25T02:11:11;100415.94;;;5.08;100.00
48553;BME280;34335;51.566;6.994;2023-04-25T02:13:36;100423.72;;;5.09;100.00
48553;BME280;34335;51.566;6.994;2023-04-25T02:16:01;100430.50;;;5.04;100.00
48553;BME280;34335;51.566;6.994;2023-04-25T02:18:27;100436.63;;;5.09;100.00
48553;BME280;34335;51.566;6.994;2023-04-25T02:20:52;100433.22;;;5.12;100.00
48553;BME280;34335;51.566;6.994;2023-04-25T02:23:17;100426.38;;;5.14;100.00
48553;BME280;34335;51.566;6.994;2023-04-25T02:25:44;100436.63;;;5.12;100.00
48553;BME280;34335;51.566;6.994;2023-04-25T02:28:09;100434.88;;;5.10;100.00
48553;BME280;34335;51.566;6.994;2023-04-25T02:30:35;100434.03;;;5.09;100.00
48553;BME280;34335;51.566;6.994;2023-04-25T02:33:01;100434.03;;;5.11;100.00
48553;BME280;34335;51.566;6.994;2023-04-25T02:35:26;100441.72;;;5.08;100.00
48553;BME280;34335;51.566;6.994;2023-04-25T02:37:51;100438.22;;;5.04;100.00
48553;BME280;34335;51.566;6.994;2023-04-25T02:40:16;100443.38;;;5.03;100.00
48553;BME280;34335;51.566;6.994;2023-04-25T02:42:42;100448.50;;;5.03;100.00
48553;BME280;34335;51.566;6.994;2023-04-25T02:45:07;100450.25;;;5.04;100.00
48553;BME280;34335;51.566;6.994;2023-04-25T02:47:33;100446.03;;;5.09;100.00
48553;BME280;34335;51.566;6.994;2023-04-25T02:49:58;100448.63;;;5.09;100.00
48553;BME280;34335;51.566;6.994;2023-04-25T02:52:23;100446.88;;;5.08;100.00
48553;BME280;34335;51.566;6.994;2023-04-25T02:54:49;100446.78;;;5.03;100.00
48553;BME280;34335;51.566;6.994;2023-04-25T02:57:15;100441.78;;;5.11;100.00
48553;BME280;34335;51.566;6.994;2023-04-25T02:59:40;100443.47;;;5.09;100.00
48553;BME280;34335;51.566;6.994;2023-04-25T03:02:05;100443.44;;;5.07;100.00
48553;BME280;34335;51.566;6.994;2023-04-25T03:04:30;100438.38;;;5.12;100.00
48553;BME280;34335;51.566;6.994;2023-04-25T03:06:56;100447.78;;;5.10;100.00
48553;BME280;34335;51.566;6.994;2023-04-25T03:09:21;100442.47;;;5.02;100.00
48553;BME280;34335;51.566;6.994;2023-04-25T03:11:47;100445.09;;;5.04;100.00
48553;BME280;34335;51.566;6.994;2023-04-25T03:14:13;100445.19;;;5.08;100.00
48553;BME280;34335;51.566;6.994;2023-04-25T03:16:38;100449.50;;;5.11;100.00
48553;BME280;34335;51.566;6.994;2023-04-25T03:19:04;100452.00;;;5.05;100.00
48553;BME280;34335;51.566;6.994;2023-04-25T03:21:34;100452.00;;;5.05;100.00
48553;BME280;34335;51.566;6.994;2023-04-25T03:24:01;100453.69;;;5.04;100.00
48553;BME280;34335;51.566;6.994;2023-04-25T03:26:27;100453.69;;;5.04;100.00
48553;BME280;34335;51.566;6.994;2023-04-25T03:28:52;100448.50;;;5.03;100.00
48553;BME280;34335;51.566;6.994;2023-04-25T03:31:18;100459.75;;;5.06;100.00
48553;BME280;34335;51.566;6.994;2023-04-25T03:33:43;100464.81;;;5.00;100.00
48553;BME280;34335;51.566;6.994;2023-04-25T03:36:08;100455.34;;;5.01;100.00
48553;BME280;34335;51.566;6.994;2023-04-25T03:38:34;100455.34;;;5.01;100.00
48553;BME280;34335;51.566;6.994;2023-04-25T03:41:01;100459.66;;;5.02;100.00
48553;BME280;34335;51.566;6.994;2023-04-25T03:43:26;100464.06;;;5.07;100.00
48553;BME280;34335;51.566;6.994;2023-04-25T03:45:51;100468.38;;;5.08;100.00
48553;BME280;34335;51.566;6.994;2023-04-25T03:48:17;100472.56;;;5.02;100.00
48553;BME280;34335;51.566;6.994;2023-04-25T03:50:42;100478.38;;;4.91;100.00
48553;BME280;34335;51.566;6.994;2023-04-25T03:53:07;100479.81;;;4.77;100.00
48553;BME280;34335;51.566;6.994;2023-04-25T03:55:33;100486.16;;;4.50;100.00
48553;BME280;34335;51.566;6.994;2023-04-25T03:57:58;100476.84;;;4.55;100.00
48553;BME280;34335;51.566;6.994;2023-04-25T04:00:24;100479.69;;;4.69;100.00
48553;BME280;34335;51.566;6.994;2023-04-25T04:02:49;100475.72;;;4.42;100.00
48553;BME280;34335;51.566;6.994;2023-04-25T04:05:15;100474.09;;;4.47;100.00
48553;BME280;34335;51.566;6.994;2023-04-25T04:07:40;100473.09;;;4.41;100.00
48553;BME280;34335;51.566;6.994;2023-04-25T04:10:08;100479.88;;;4.35;100.00
48553;BME280;34335;51.566;6.994;2023-04-25T04:12:33;100488.28;;;4.28;100.00
48553;BME280;34335;51.566;6.994;2023-04-25T04:14:59;100489.16;;;4.27;100.00
48553;BME280;34335;51.566;6.994;2023-04-25T04:17:24;100479.72;;;4.29;100.00
48553;BME280;34335;51.566;6.994;2023-04-25T04:19:50;100484.38;;;4.46;100.00
48553;BME280;34335;51.566;6.994;2023-04-25T04:22:16;100482.66;;;4.46;100.00
48553;BME280;34335;51.566;6.994;2023-04-25T04:24:41;100489.97;;;4.26;100.00
48553;BME280;34335;51.566;6.994;2023-04-25T04:27:09;100493.50;;;4.31;100.00
48553;BME280;34335;51.566;6.994;2023-04-25T04:29:34;100494.69;;;4.46;100.00
48553;BME280;34335;51.566;6.994;2023-04-25T04:32:00;100505.16;;;4.55;100.00
48553;BME280;34335;51.566;6.994;2023-04-25T04:34:26;100500.84;;;4.54;100.00
48553;BME280;34335;51.566;6.994;2023-04-25T04:36:52;100494.69;;;4.46;100.00
48553;BME280;34335;51.566;6.994;2023-04-25T04:39:17;100500.88;;;4.56;100.00
48553;BME280;34335;51.566;6.994;2023-04-25T04:41:42;100502.63;;;4.58;100.00
48553;BME280;34335;51.566;6.994;2023-04-25T04:44:08;100503.56;;;4.62;100.00
48553;BME280;34335;51.566;6.994;2023-04-25T04:46:34;100498.38;;;4.59;100.00
48553;BME280;34335;51.566;6.994;2023-04-25T04:49:04;100502.72;;;4.63;100.00
48553;BME280;34335;51.566;6.994;2023-04-25T04:51:30;100509.59;;;4.62;100.00
48553;BME280;34335;51.566;6.994;2023-04-25T04:53:56;100507.13;;;4.68;100.00
48553;BME280;34335;51.566;6.994;2023-04-25T04:56:23;100518.47;;;4.77;100.00
48553;BME280;34335;51.566;6.994;2023-04-25T04:58:50;100522.94;;;4.86;100.00
48553;BME280;34335;51.566;6.994;2023-04-25T05:01:15;100519.59;;;4.90;100.00
48553;BME280;34335;51.566;6.994;2023-04-25T05:03:41;100522.94;;;4.86;100.00
48553;BME280;34335;51.566;6.994;2023-04-25T05:06:06;100526.50;;;4.92;100.00
48553;BME280;34335;51.566;6.994;2023-04-25T05:08:31;100523.78;;;4.84;100.00
48553;BME280;34335;51.566;6.994;2023-04-25T05:10:56;100527.22;;;4.85;100.00
48553;BME280;34335;51.566;6.994;2023-04-25T05:13:22;100533.06;;;4.76;100.00
48553;BME280;34335;51.566;6.994;2023-04-25T05:15:47;100540.78;;;4.75;100.00
48553;BME280;34335;51.566;6.994;2023-04-25T05:18:12;100528.66;;;4.71;100.00
48553;BME280;34335;51.566;6.994;2023-04-25T05:20:37;100545.78;;;4.68;100.00
48553;BME280;34335;51.566;6.994;2023-04-25T05:23:03;100543.19;;;4.68;100.00
48553;BME280;34335;51.566;6.994;2023-04-25T05:25:29;100548.44;;;4.73;100.00
48553;BME280;34335;51.566;6.994;2023-04-25T05:27:54;100545.09;;;4.77;100.00
48553;BME280;34335;51.566;6.994;2023-04-25T05:30:19;100562.41;;;4.83;100.00
48553;BME280;34335;51.566;6.994;2023-04-25T05:32:45;100557.28;;;4.86;100.00
48553;BME280;34335;51.566;6.994;2023-04-25T05:35:11;100558.91;;;4.81;100.00
48553;BME280;34335;51.566;6.994;2023-04-25T05:37:37;100560.31;;;4.66;100.00
48553;BME280;34335;51.566;6.994;2023-04-25T05:40:02;100562.31;;;4.78;100.00
48553;BME280;34335;51.566;6.994;2023-04-25T05:42:32;100559.81;;;4.83;100.00
48553;BME280;34335;51.566;6.994;2023-04-25T05:44:57;100568.56;;;4.90;100.00
48553;BME280;34335;51.566;6.994;2023-04-25T05:47:22;100568.56;;;4.90;100.00
48553;BME280;34335;51.566;6.994;2023-04-25T05:49:47;100573.91;;;5.01;100.00
48553;BME280;34335;51.566;6.994;2023-04-25T05:52:13;100583.38;;;5.02;100.00
48553;BME280;34335;51.566;6.994;2023-04-25T05:54:38;100581.66;;;5.02;100.00
48553;BME280;34335;51.566;6.994;2023-04-25T05:57:03;100581.66;;;5.02;100.00
48553;BME280;34335;51.566;6.994;2023-04-25T05:59:29;100588.56;;;5.03;100.00
48553;BME280;34335;51.566;6.994;2023-04-25T06:01:54;100601.53;;;5.08;100.00
48553;BME280;34335;51.566;6.994;2023-04-25T06:04:20;100601.50;;;5.05;100.00
48553;BME280;34335;51.566;6.994;2023-04-25T06:06:45;100602.25;;;5.01;100.00
48553;BME280;34335;51.566;6.994;2023-04-25T06:09:10;100595.66;;;5.15;100.00
48553;BME280;34335;51.566;6.994;2023-04-25T06:11:35;100599.06;;;5.12;100.00
48553;BME280;34335;51.566;6.994;2023-04-25T06:14:01;100605.94;;;5.13;100.00
48553;BME280;34335;51.566;6.994;2023-04-25T06:16:26;100602.66;;;5.21;100.00
48553;BME280;34335;51.566;6.994;2023-04-25T06:18:51;100616.50;;;5.26;100.00
48553;BME280;34335;51.566;6.994;2023-04-25T06:21:17;100611.31;;;5.24;100.00
48553;BME280;34335;51.566;6.994;2023-04-25T06:23:42;100620.75;;;5.22;100.00
48553;BME280;34335;51.566;6.994;2023-04-25T06:26:07;100612.84;;;5.14;100.00
48553;BME280;34335;51.566;6.994;2023-04-25T06:28:32;100616.47;;;5.24;100.00
48553;BME280;34335;51.566;6.994;2023-04-25T06:30:58;100622.59;;;5.29;100.00
48553;BME280;34335;51.566;6.994;2023-04-25T06:33:23;100629.06;;;5.09;100.00
48553;BME280;34335;51.566;6.994;2023-04-25T06:35:49;100632.16;;;4.92;100.00
48553;BME280;34335;51.566;6.994;2023-04-25T06:38:15;100629.63;;;4.94;100.00
48553;BME280;34335;51.566;6.994;2023-04-25T06:40:40;100622.56;;;4.85;100.00
48553;BME280;34335;51.566;6.994;2023-04-25T06:43:05;100626.94;;;4.89;100.00
48553;BME280;34335;51.566;6.994;2023-04-25T06:45:31;100629.84;;;5.05;100.00
48553;BME280;34335;51.566;6.994;2023-04-25T06:47:56;100626.31;;;5.01;100.00
48553;BME280;34335;51.566;6.994;2023-04-25T06:50:21;100625.56;;;5.07;100.00
48553;BME280;34335;51.566;6.994;2023-04-25T06:52:46;100626.47;;;5.09;100.00
48553;BME280;34335;51.566;6.994;2023-04-25T06:55:12;100623.06;;;5.08;100.00
48553;BME280;34335;51.566;6.994;2023-04-25T06:57:37;100629.41;;;5.26;100.00
48553;BME280;34335;51.566;6.994;2023-04-25T07:00:04;100625.75;;;5.16;100.00
48553;BME280;34335;51.566;6.994;2023-04-25T07:02:30;100624.44;;;5.37;100.00
48553;BME280;34335;51.566;6.994;2023-04-25T07:04:56;100632.94;;;5.31;100.00
48553;BME280;34335;51.566;6.994;2023-04-25T07:07:24;100637.59;;;5.51;100.00
48553;BME280;34335;51.566;6.994;2023-04-25T07:09:50;100640.25;;;5.55;100.00
48553;BME280;34335;51.566;6.994;2023-04-25T07:12:15;100632.50;;;5.54;100.00
48553;BME280;34335;51.566;6.994;2023-04-25T07:14:40;100639.50;;;5.61;100.00
48553;BME280;34335;51.566;6.994;2023-04-25T07:17:06;100649.19;;;5.73;100.00
48553;BME280;34335;51.566;6.994;2023-04-25T07:19:32;100649.25;;;5.76;100.00
48553;BME280;34335;51.566;6.994;2023-04-25T07:21:58;100649.13;;;5.70;100.00
48553;BME280;34335;51.566;6.994;2023-04-25T07:24:23;100661.13;;;5.68;100.00
48553;BME280;34335;51.566;6.994;2023-04-25T07:26:48;100658.06;;;5.89;100.00
48553;BME280;34335;51.566;6.994;2023-04-25T07:29:14;100665.34;;;6.10;100.00
48553;BME280;34335;51.566;6.994;2023-04-25T07:31:39;100661.94;;;6.13;100.00
48553;BME280;34335;51.566;6.994;2023-04-25T07:34:04;100661.69;;;5.99;100.00
48553;BME280;34335;51.566;6.994;2023-04-25T07:36:31;100666.22;;;6.12;100.00
48553;BME280;34335;51.566;6.994;2023-04-25T07:38:56;100668.78;;;6.09;100.00
48553;BME280;34335;51.566;6.994;2023-04-25T07:41:21;100672.31;;;6.16;100.00
48553;BME280;34335;51.566;6.994;2023-04-25T07:43:47;100676.75;;;6.23;100.00
48553;BME280;34335;51.566;6.994;2023-04-25T07:46:12;100672.34;;;6.17;100.00
48553;BME280;34335;51.566;6.994;2023-04-25T07:48:37;100672.22;;;6.10;100.00
48553;BME280;34335;51.566;6.994;2023-04-25T07:51:03;100686.47;;;6.38;100.00
48553;BME280;34335;51.566;6.994;2023-04-25T07:53:30;100685.00;;;6.55;100.00
48553;BME280;34335;51.566;6.994;2023-04-25T07:55:57;100685.19;;;6.68;100.00
48553;BME280;34335;51.566;6.994;2023-04-25T07:58:22;100679.56;;;6.37;100.00
48553;BME280;34335;51.566;6.994;2023-04-25T08:00:48;100691.09;;;6.59;100.00
48553;BME280;34335;51.566;6.994;2023-04-25T08:03:13;100686.03;;;6.67;100.00
48553;BME280;34335;51.566;6.994;2023-04-25T08:05:39;100696.06;;;6.45;100.00
48553;BME280;34335;51.566;6.994;2023-04-25T08:08:04;100705.19;;;6.80;100.00
48553;BME280;34335;51.566;6.994;2023-04-25T08:10:32;100706.69;;;6.65;100.00
48553;BME280;34335;51.566;6.994;2023-04-25T08:12:57;100711.69;;;6.54;100.00
48553;BME280;34335;51.566;6.994;2023-04-25T08:15:22;100723.03;;;6.64;100.00
48553;BME280;34335;51.566;6.994;2023-04-25T08:17:48;100721.88;;;7.02;100.00
48553;BME280;34335;51.566;6.994;2023-04-25T08:20:13;100714.25;;;7.13;100.00
48553;BME280;34335;51.566;6.994;2023-04-25T08:22:38;100712.38;;;7.02;100.00
48553;BME280;34335;51.566;6.994;2023-04-25T08:25:04;100723.56;;;7.00;100.00
48553;BME280;34335;51.566;6.994;2023-04-25T08:27:29;100712.50;;;7.10;100.00
48553;BME280;34335;51.566;6.994;2023-04-25T08:29:55;100725.28;;;7.01;100.00
48553;BME280;34335;51.566;6.994;2023-04-25T08:32:20;100716.50;;;7.56;100.00
48553;BME280;34335;51.566;6.994;2023-04-25T08:34:46;100727.78;;;7.62;100.00
48553;BME280;34335;51.566;6.994;2023-04-25T08:37:12;100732.91;;;7.58;100.00
48553;BME280;34335;51.566;6.994;2023-04-25T08:39:37;100731.28;;;7.66;100.00
48553;BME280;34335;51.566;6.994;2023-04-25T08:42:05;100738.34;;;7.79;100.00
48553;BME280;34335;51.566;6.994;2023-04-25T08:44:34;100731.16;;;8.38;100.00
48553;BME280;34335;51.566;6.994;2023-04-25T08:47:02;100740.66;;;8.42;100.00
48553;BME280;34335;51.566;6.994;2023-04-25T08:49:28;100748.81;;;7.90;100.00
48553;BME280;34335;51.566;6.994;2023-04-25T08:51:59;100748.28;;;7.45;100.00
48553;BME280;34335;51.566;6.994;2023-04-25T08:54:27;100748.72;;;7.81;100.00
48553;BME280;34335;51.566;6.994;2023-04-25T08:56:55;100748.34;;;8.30;100.00
48553;BME280;34335;51.566;6.994;2023-04-25T08:59:23;100740.84;;;8.58;100.00
48553;BME280;34335;51.566;6.994;2023-04-25T09:01:49;100757.94;;;8.40;100.00
48553;BME280;34335;51.566;6.994;2023-04-25T09:04:15;100752.69;;;8.34;100.00
48553;BME280;34335;51.566;6.994;2023-04-25T09:06:40;100764.03;;;8.44;100.00
48553;BME280;34335;51.566;6.994;2023-04-25T09:09:07;100765.09;;;8.66;100.00
48553;BME280;34335;51.566;6.994;2023-04-25T09:11:34;100770.88;;;8.37;100.00
48553;BME280;34335;51.566;6.994;2023-04-25T09:14:30;100780.69;;;8.69;100.00
48553;BME280;34335;51.566;6.994;2023-04-25T09:19:24;100779.72;;;8.61;100.00
48553;BME280;34335;51.566;6.994;2023-04-25T09:21:53;100782.88;;;8.29;100.00
48553;BME280;34335;51.566;6.994;2023-04-25T09:24:36;100784.31;;;8.93;100.00
48553;BME280;34335;51.566;6.994;2023-04-25T09:27:06;100782.84;;;9.35;100.00
48553;BME280;34335;51.566;6.994;2023-04-25T09:29:35;100791.19;;;8.88;100.00
48553;BME280;34335;51.566;6.994;2023-04-25T09:32:20;100783.28;;;8.69;100.00
48553;BME280;34335;51.566;6.994;2023-04-25T09:34:48;100782.50;;;8.81;100.00
48553;BME280;34335;51.566;6.994;2023-04-25T09:37:25;100783.75;;;9.45;100.00
48553;BME280;34335;51.566;6.994;2023-04-25T09:39:54;100787.25;;;9.58;100.00
48553;BME280;34335;51.566;6.994;2023-04-25T09:42:24;100797.63;;;9.52;98.18
48553;BME280;34335;51.566;6.994;2023-04-25T09:44:52;100803.69;;;9.56;100.00
48553;BME280;34335;51.566;6.994;2023-04-25T09:47:17;100798.63;;;9.76;91.14
48553;BME280;34335;51.566;6.994;2023-04-25T09:49:43;100792.69;;;10.23;93.09
48553;BME280;34335;51.566;6.994;2023-04-25T09:52:13;100796.13;;;10.24;94.58
48553;BME280;34335;51.566;6.994;2023-04-25T09:54:39;100805.31;;;9.33;87.40
48553;BME280;34335;51.566;6.994;2023-04-25T09:57:21;100805.16;;;9.07;83.58
48553;BME280;34335;51.566;6.994;2023-04-25T09:59:52;100808.59;;;9.04;79.54
48553;BME280;34335;51.566;6.994;2023-04-25T10:02:19;100802.81;;;9.52;96.37
48553;BME280;34335;51.566;6.994;2023-04-25T10:04:48;100818.22;;;9.18;84.26
48553;BME280;34335;51.566;6.994;2023-04-25T10:07:14;100821.88;;;9.54;95.96
48553;BME280;34335;51.566;6.994;2023-04-25T10:09:40;100821.47;;;8.92;87.32
48553;BME280;34335;51.566;6.994;2023-04-25T10:12:07;100825.97;;;9.13;90.24
48553;BME280;34335;51.566;6.994;2023-04-25T10:14:33;100822.75;;;9.53;96.54
48553;BME280;34335;51.566;6.994;2023-04-25T10:16:59;100819.25;;;9.51;96.40
48553;BME280;34335;51.566;6.994;2023-04-25T10:19:25;100830.38;;;9.25;94.53
48553;BME280;34335;51.566;6.994;2023-04-25T10:22:02;100834.56;;;9.08;90.22
48553;BME280;34335;51.566;6.994;2023-04-25T10:24:28;100839.56;;;8.80;90.64
48553;BME280;34335;51.566;6.994;2023-04-25T10:26:53;100840.50;;;8.94;90.73
48553;BME280;34335;51.566;6.994;2023-04-25T10:29:24;100850.16;;;9.11;100.00
48553;BME280;34335;51.566;6.994;2023-04-25T10:31:49;100857.78;;;8.92;100.00
48553;BME280;34335;51.566;6.994;2023-04-25T10:34:16;100863.22;;;8.29;100.00
48553;BME280;34335;51.566;6.994;2023-04-25T10:36:42;100869.44;;;7.74;100.00
48553;BME280;34335;51.566;6.994;2023-04-25T10:39:08;100883.94;;;7.60;100.00
48553;BME280;34335;51.566;6.994;2023-04-25T10:41:55;100886.88;;;7.25;100.00
48553;BME280;34335;51.566;6.994;2023-04-25T10:44:21;100888.72;;;6.81;100.00
48553;BME280;34335;51.566;6.994;2023-04-25T10:46:47;100899.97;;;6.83;100.00
48553;BME280;34335;51.566;6.994;2023-04-25T10:49:37;100888.63;;;6.75;100.00
48553;BME280;34335;51.566;6.994;2023-04-25T10:52:16;100889.16;;;7.63;100.00
48553;BME280;34335;51.566;6.994;2023-04-25T10:57:31;100887.66;;;7.22;100.00
48553;BME280;34335;51.566;6.994;2023-04-25T11:00:04;100883.44;;;7.89;100.00
48553;BME280;34335;51.566;6.994;2023-04-25T11:02:30;100884.63;;;8.13;100.00
48553;BME280;34335;51.566;6.994;2023-04-25T11:04:56;100879.88;;;7.19;100.00
48553;BME280;34335;51.566;6.994;2023-04-25T11:07:37;100879.41;;;8.09;100.00
48553;BME280;34335;51.566;6.994;2023-04-25T11:10:03;100881.66;;;7.85;100.00
48553;BME280;34335;51.566;6.994;2023-04-25T11:12:30;100877.44;;;7.90;100.00
48553;BME280;34335;51.566;6.994;2023-04-25T11:15:04;100874.84;;;8.64;100.00
48553;BME280;34335;51.566;6.994;2023-04-25T11:17:31;100873.84;;;8.54;100.00
48553;BME280;34335;51.566;6.994;2023-04-25T11:19:56;100878.72;;;8.26;100.00
48553;BME280;34335;51.566;6.994;2023-04-25T11:22:23;100879.34;;;8.85;100.00
48553;BME280;34335;51.566;6.994;2023-04-25T11:24:48;100877.03;;;9.20;100.00
48553;BME280;34335;51.566;6.994;2023-04-25T11:27:14;100875.69;;;9.85;100.00
48553;BME280;34335;51.566;6.994;2023-04-25T11:29:40;100869.75;;;10.12;100.00
48553;BME280;34335;51.566;6.994;2023-04-25T11:32:05;100875.00;;;10.26;95.01
48553;BME280;34335;51.566;6.994;2023-04-25T11:34:32;100865.38;;;10.00;97.74
48553;BME280;34335;51.566;6.994;2023-04-25T11:36:58;100862.88;;;10.29;96.19
48553;BME280;34335;51.566;6.994;2023-04-25T11:39:25;100865.53;;;10.54;84.30
48553;BME280;34335;51.566;6.994;2023-04-25T11:41:51;100864.56;;;10.20;76.17
48553;BME280;34335;51.566;6.994;2023-04-25T11:44:18;100874.06;;;10.05;78.23
48553;BME280;34335;51.566;6.994;2023-04-25T11:46:44;100872.47;;;10.46;80.82
48553;BME280;34335;51.566;6.994;2023-04-25T11:49:09;100866.25;;;10.07;80.85
48553;BME280;34335;51.566;6.994;2023-04-25T11:51:53;100871.63;;;10.50;78.43
48553;BME280;34335;51.566;6.994;2023-04-25T11:54:18;100862.13;;;10.71;87.71
48553;BME280;34335;51.566;6.994;2023-04-25T11:56:44;100860.31;;;11.49;78.06
48553;BME280;34335;51.566;6.994;2023-04-25T11:59:10;100867.31;;;11.17;79.08
48553;BME280;34335;51.566;6.994;2023-04-25T12:01:38;100857.78;;;10.70;77.34
48553;BME280;34335;51.566;6.994;2023-04-25T12:04:17;100852.56;;;10.68;80.69
48553;BME280;34335;51.566;6.994;2023-04-25T12:06:45;100872.53;;;10.99;74.69
48553;BME280;34335;51.566;6.994;2023-04-25T12:09:15;100867.31;;;10.71;74.04
48553;BME280;34335;51.566;6.994;2023-04-25T12:11:56;100878.59;;;10.79;75.39
48553;BME280;34335;51.566;6.994;2023-04-25T12:16:52;100884.53;;;10.32;77.29
48553;BME280;34335;51.566;6.994;2023-04-25T12:19:20;100885.38;;;10.24;78.26
48553;BME280;34335;51.566;6.994;2023-04-25T12:21:46;100890.63;;;10.34;75.92
48553;BME280;34335;51.566;6.994;2023-04-25T12:24:17;100893.78;;;9.67;78.76
48553;BME280;34335;51.566;6.994;2023-04-25T12:29:16;100897.66;;;9.05;88.59
48553;BME280;34335;51.566;6.994;2023-04-25T12:31:42;100900.25;;;9.03;100.00
48553;BME280;34335;51.566;6.994;2023-04-25T12:34:07;100904.00;;;9.38;95.35
48553;BME280;34335;51.566;6.994;2023-04-25T12:36:33;100912.66;;;9.43;95.59
48553;BME280;34335;51.566;6.994;2023-04-25T12:38:58;100898.28;;;10.01;100.00
48553;BME280;34335;51.566;6.994;2023-04-25T12:41:29;100900.91;;;10.10;94.14
48553;BME280;34335;51.566;6.994;2023-04-25T12:43:54;100910.19;;;9.60;95.06
48553;BME280;34335;51.566;6.994;2023-04-25T12:46:19;100920.22;;;9.15;98.12
48553;BME280;34335;51.566;6.994;2023-04-25T12:48:44;100914.59;;;9.77;100.00
48553;BME280;34335;51.566;6.994;2023-04-25T12:51:10;100920.59;;;9.65;100.00
48553;BME280;34335;51.566;6.994;2023-04-25T12:53:35;100919.91;;;9.92;100.00
48553;BME280;34335;51.566;6.994;2023-04-25T12:56:02;100923.16;;;9.59;91.46
48553;BME280;34335;51.566;6.994;2023-04-25T12:58:28;100921.03;;;9.07;90.49